Time;durP1;ratioP1;P1;durP2;ratioP2;P2;SDS_P1;SDS_P2;PMS_P1;PMS_P2;Temp;Humidity;BMP_temperature;BMP_pressure;BME280_temperature;BME280_humidity;BME280_pressure;Samples;Min_cycle;Max_cycle;Signal;HPM_P1;HPM_P2
2023/04/20 00:01:57;;;;;;;7.53;6.82;;;9.30;99.90;;;;;;5134045;28;20214;-78
2023/04/20 00:04:24;;;;;;;6.15;5.55;;;9.30;99.90;;;;;;5133642;28;20222;-77
2023/04/20 00:06:57;;;;;;;8.10;7.50;;;9.40;99.90;;;;;;5134142;27;20695;-76
2023/04/20 00:09:26;;;;;;;7.45;6.80;;;9.40;99.90;;;;;;5138204;27;20684;-77
2023/04/20 00:11:56;;;;;;;7.93;7.22;;;9.40;99.90;;;;;;5137496;27;20222;-77
2023/04/20 00:14:23;;;;;;;7.45;6.75;;;9.40;99.90;;;;;;5138105;27;20229;-77
2023/04/20 00:16:51;;;;;;;7.38;6.78;;;9.40;99.90;;;;;;5138202;27;20592;-77
2023/04/20 00:19:21;;;;;;;7.57;6.93;;;9.40;99.90;;;;;;5137860;27;20218;-77
2023/04/20 00:21:50;;;;;;;6.45;5.88;;;9.40;99.90;;;;;;5137465;27;20275;-77
2023/04/20 00:24:19;;;;;;;6.93;5.68;;;9.40;99.90;;;;;;5136869;27;20210;-77
2023/04/20 00:26:45;;;;;;;6.38;5.82;;;9.40;99.90;;;;;;5137815;27;20582;-77
2023/04/20 00:29:13;;;;;;;6.07;5.57;;;9.40;99.90;;;;;;5136857;27;20226;-77
2023/04/20 00:31:39;;;;;;;5.75;4.88;;;9.30;99.90;;;;;;5137169;27;20222;-77
2023/04/20 00:34:07;;;;;;;6.00;5.50;;;9.30;99.90;;;;;;5136043;27;20534;-77
2023/04/20 00:36:36;;;;;;;6.40;5.50;;;9.30;99.90;;;;;;5137355;27;20218;-77
2023/04/20 00:39:03;;;;;;;5.70;5.30;;;9.30;99.90;;;;;;5136613;27;20218;-77
2023/04/20 00:41:30;;;;;;;5.82;5.25;;;9.30;99.90;;;;;;5136708;27;20214;-76
2023/04/20 00:43:58;;;;;;;5.18;4.65;;;9.20;99.90;;;;;;5137265;27;20214;-77
2023/04/20 00:46:25;;;;;;;4.57;4.18;;;9.20;99.90;;;;;;5135974;27;20214;-77
2023/04/20 00:48:53;;;;;;;5.57;4.90;;;9.20;99.90;;;;;;5137322;27;20214;-77
2023/04/20 00:51:22;;;;;;;6.32;5.68;;;9.20;99.90;;;;;;5136291;27;20344;-77
2023/04/20 00:53:57;;;;;;;5.47;5.07;;;9.20;99.90;;;;;;5136583;27;20218;-77
2023/04/20 00:56:26;;;;;;;6.57;5.20;;;9.20;99.90;;;;;;5135966;27;20312;-77
2023/04/20 00:58:55;;;;;;;5.10;4.60;;;9.20;99.90;;;;;;5136407;27;20297;-78
2023/04/20 01:01:22;;;;;;;5.50;4.72;;;9.20;99.90;;;;;;5136066;27;20226;-77
2023/04/20 01:03:49;;;;;;;6.63;6.03;;;9.20;99.90;;;;;;5136618;27;20283;-77
2023/04/20 01:06:17;;;;;;;6.47;5.97;;;9.10;99.90;;;;;;5134785;27;20221;-77
2023/04/20 01:08:51;;;;;;;6.15;5.60;;;9.10;99.90;;;;;;5136471;27;20725;-77
2023/04/20 01:11:22;;;;;;;5.55;5.05;;;9.20;99.90;;;;;;5125195;27;20309;-77
2023/04/20 01:13:50;;;;;;;8.43;6.05;;;9.20;99.90;;;;;;5136342;27;20251;-77
2023/04/20 01:16:18;;;;;;;5.53;4.97;;;9.10;99.90;;;;;;5133624;27;20633;-77
2023/04/20 01:18:47;;;;;;;6.90;6.30;;;9.10;99.90;;;;;;5134994;27;20263;-77
2023/04/20 01:21:15;;;;;;;6.95;5.65;;;9.20;99.90;;;;;;5135087;27;20226;-78
2023/04/20 01:23:44;;;;;;;6.88;6.20;;;9.20;99.90;;;;;;5135975;27;20230;-77
2023/04/20 01:26:12;;;;;;;6.68;5.63;;;9.20;99.90;;;;;;5135380;27;20226;-77
2023/04/20 01:28:42;;;;;;;5.88;5.38;;;9.20;99.90;;;;;;5135505;27;20214;-76
2023/04/20 01:31:10;;;;;;;6.63;5.68;;;9.20;99.90;;;;;;5135068;27;20278;-77
2023/04/20 01:33:37;;;;;;;6.32;5.72;;;9.20;99.90;;;;;;5135927;27;20601;-77
2023/04/20 01:36:06;;;;;;;5.75;5.05;;;9.20;99.90;;;;;;5135389;27;20879;-77
2023/04/20 01:38:33;;;;;;;6.55;5.95;;;9.20;99.90;;;;;;5135397;27;20217;-76
2023/04/20 01:41:03;;;;;;;6.78;6.05;;;9.20;99.90;;;;;;5114894;28;20695;-77
2023/04/20 01:43:31;;;;;;;6.05;5.55;;;9.30;99.90;;;;;;5114736;28;20234;-76
2023/04/20 01:45:59;;;;;;;6.22;5.57;;;9.20;99.90;;;;;;5115190;28;20265;-76
2023/04/20 01:48:27;;;;;;;6.28;5.68;;;9.20;99.90;;;;;;5113699;28;20218;-76
2023/04/20 01:50:57;;;;;;;6.65;6.05;;;9.20;99.90;;;;;;5113523;28;20214;-77
2023/04/20 01:53:25;;;;;;;7.68;6.90;;;9.20;99.90;;;;;;5114267;28;20254;-76
2023/04/20 01:55:52;;;;;;;6.55;5.95;;;9.20;99.90;;;;;;5114677;28;20222;-76
2023/04/20 01:58:21;;;;;;;6.00;5.50;;;9.20;99.90;;;;;;5114998;28;20318;-77
2023/04/20 02:00:48;;;;;;;5.63;5.20;;;9.20;99.90;;;;;;5115096;28;20225;-77
2023/04/20 02:03:15;;;;;;;6.05;5.55;;;9.20;99.90;;;;;;5114580;28;20288;-77
2023/04/20 02:05:42;;;;;;;6.28;5.68;;;9.20;99.90;;;;;;5122346;28;20223;-77
2023/04/20 02:08:12;;;;;;;6.75;6.20;;;9.20;99.90;;;;;;5121835;28;20226;-77
2023/04/20 02:10:39;;;;;;;7.07;6.47;;;9.20;99.90;;;;;;5119096;28;20226;-76
2023/04/20 02:13:07;;;;;;;6.38;5.85;;;9.20;99.90;;;;;;5118756;28;20222;-77
2023/04/20 02:15:36;;;;;;;7.00;6.38;;;9.20;99.90;;;;;;5114217;28;20222;-77
2023/04/20 02:18:03;;;;;;;6.30;5.70;;;9.10;99.90;;;;;;5127112;27;20252;-79
2023/04/20 02:20:33;;;;;;;6.35;5.75;;;9.10;99.90;;;;;;5135141;27;20273;-78
2023/04/20 02:23:03;;;;;;;7.05;6.40;;;9.10;99.90;;;;;;5135021;27;20229;-78
2023/04/20 02:25:30;;;;;;;7.45;6.68;;;9.10;99.90;;;;;;5134508;27;20226;-78
2023/04/20 02:27:57;;;;;;;8.85;6.35;;;9.10;99.90;;;;;;5134311;27;20214;-77
2023/04/20 02:30:24;;;;;;;6.97;6.30;;;9.10;99.90;;;;;;5133915;27;20249;-77
2023/04/20 02:32:53;;;;;;;6.43;5.82;;;9.10;99.90;;;;;;5132280;27;20225;-78
2023/04/20 02:35:20;;;;;;;7.65;6.95;;;9.20;99.90;;;;;;5107696;28;21352;-79
2023/04/20 02:37:47;;;;;;;8.20;7.40;;;9.20;99.90;;;;;;5115783;28;20218;-77
2023/04/20 02:40:15;;;;;;;10.90;8.35;;;9.20;99.90;;;;;;5127571;27;20226;-78
2023/04/20 02:42:42;;;;;;;7.60;6.90;;;9.10;99.90;;;;;;5133345;27;20237;-76
2023/04/20 02:45:11;;;;;;;8.63;7.63;;;9.20;99.90;;;;;;5134735;27;20225;-76
2023/04/20 02:47:38;;;;;;;7.80;7.03;;;9.10;99.90;;;;;;5133952;27;20225;-77
2023/04/20 02:50:10;;;;;;;7.85;7.05;;;9.20;99.90;;;;;;5134491;27;20256;-77
2023/04/20 02:52:38;;;;;;;7.43;6.68;;;9.20;99.90;;;;;;5131638;27;20226;-77
2023/04/20 02:55:08;;;;;;;8.23;7.45;;;9.20;99.90;;;;;;5134194;27;20245;-77
2023/04/20 02:57:35;;;;;;;8.07;7.30;;;9.30;99.90;;;;;;5132100;27;20224;-77
2023/04/20 03:00:03;;;;;;;8.75;7.95;;;9.30;99.90;;;;;;5134018;28;20610;-77
2023/04/20 03:02:30;;;;;;;8.88;8.00;;;9.30;99.90;;;;;;5133030;28;20317;-77
2023/04/20 03:04:57;;;;;;;9.02;8.20;;;9.30;99.90;;;;;;5134118;28;20233;-77
2023/04/20 03:07:26;;;;;;;9.80;8.38;;;9.30;99.90;;;;;;5133900;28;20222;-78
2023/04/20 03:09:55;;;;;;;11.73;8.15;;;9.30;99.90;;;;;;5134717;28;20608;-77
2023/04/20 03:15:25;;;;;;;10.05;8.75;;;9.40;99.90;;;;;;5113428;28;20647;-77
2023/04/20 03:17:52;;;;;;;11.90;8.48;;;9.40;99.90;;;;;;5113147;28;20545;-77
2023/04/20 03:20:20;;;;;;;10.32;9.32;;;9.40;99.90;;;;;;5103101;28;20533;-77
2023/04/20 03:22:48;;;;;;;10.90;9.73;;;9.40;99.90;;;;;;5113780;28;20210;-77
2023/04/20 03:25:16;;;;;;;11.45;8.85;;;9.40;99.90;;;;;;5112751;28;20233;-77
2023/04/20 03:27:43;;;;;;;9.90;8.95;;;9.40;99.90;;;;;;5114392;28;20218;-78
2023/04/20 03:30:11;;;;;;;9.20;8.25;;;9.50;99.90;;;;;;5112879;28;20226;-78
2023/04/20 03:32:38;;;;;;;10.45;9.25;;;9.50;99.90;;;;;;5113394;28;20222;-78
2023/04/20 03:35:06;;;;;;;11.23;9.95;;;9.50;99.90;;;;;;5112902;28;20317;-77
2023/04/20 03:37:33;;;;;;;15.85;11.52;;;9.50;99.90;;;;;;5113271;28;20219;-78
2023/04/20 03:40:02;;;;;;;12.32;11.10;;;9.50;99.90;;;;;;5112992;28;20219;-78
2023/04/20 03:42:29;;;;;;;14.07;12.13;;;9.40;99.90;;;;;;5114665;28;20246;-77
2023/04/20 03:44:59;;;;;;;12.35;11.05;;;9.40;99.90;;;;;;5116344;28;20254;-77
2023/04/20 03:47:26;;;;;;;12.48;11.20;;;9.40;99.90;;;;;;5116528;28;20219;-77
2023/04/20 03:49:53;;;;;;;19.33;13.00;;;9.50;99.90;;;;;;5117010;28;20620;-77
2023/04/20 03:52:20;;;;;;;14.63;12.95;;;9.50;99.90;;;;;;5116184;28;20295;-78
2023/04/20 03:54:47;;;;;;;13.73;11.85;;;9.50;99.90;;;;;;5116227;28;20292;-77
2023/04/20 03:57:19;;;;;;;14.70;12.80;;;9.40;99.90;;;;;;5116031;28;20254;-77
2023/04/20 04:00:02;;;;;;;15.45;13.60;;;9.40;99.90;;;;;;5116855;28;20219;-77
2023/04/20 04:02:33;;;;;;;16.75;13.60;;;9.40;99.90;;;;;;5115046;28;20219;-77
2023/04/20 04:05:05;;;;;;;18.83;14.90;;;9.40;99.90;;;;;;5116919;28;20226;-77
2023/04/20 04:07:37;;;;;;;19.98;15.40;;;9.30;99.90;;;;;;5100871;28;20219;-77
2023/04/20 04:10:07;;;;;;;17.77;14.20;;;9.40;99.90;;;;;;5102271;28;20686;-77
2023/04/20 04:12:47;;;;;;;20.30;15.00;;;9.30;99.90;;;;;;5106401;28;20234;-77
2023/04/20 04:15:14;;;;;;;18.25;14.75;;;9.30;99.90;;;;;;5115630;28;20227;-77
2023/04/20 04:20:52;;;;;;;;;;;;;;;;;;;;;
2023/04/20 04:23:31;;;;;;;17.13;13.75;;;9.40;99.90;;;;;;5104262;28;20359;-77
2023/04/20 04:26:01;;;;;;;15.40;13.80;;;9.50;99.90;;;;;;5113692;28;20234;-77
2023/04/20 04:28:48;;;;;;;15.75;13.15;;;9.50;99.90;;;;;;5116032;28;20223;-77
2023/04/20 04:31:17;;;;;;;18.83;14.07;;;9.60;99.90;;;;;;5118488;28;20234;-77
2023/04/20 04:33:46;;;;;;;19.50;14.75;;;9.50;99.90;;;;;;5120178;28;20219;-77
2023/04/20 04:36:14;;;;;;;20.00;15.68;;;9.60;99.90;;;;;;5118384;28;20227;-77
2023/04/20 04:38:43;;;;;;;16.33;14.35;;;9.60;99.90;;;;;;5106263;28;20313;-77
2023/04/20 04:41:12;;;;;;;20.45;15.90;;;9.60;99.90;;;;;;5116463;28;20302;-77
2023/04/20 04:43:46;;;;;;;18.25;13.60;;;9.60;99.90;;;;;;5115178;28;20253;-77
2023/04/20 04:46:16;;;;;;;15.52;12.82;;;9.60;99.90;;;;;;5100607;28;20233;-77
2023/04/20 04:48:45;;;;;;;18.45;14.20;;;9.60;99.90;;;;;;5116415;28;20210;-77
2023/04/20 04:51:12;;;;;;;18.63;14.40;;;9.60;99.90;;;;;;5115467;28;20219;-77
2023/04/20 04:53:43;;;;;;;17.48;13.45;;;9.60;99.90;;;;;;5115747;28;20222;-77
2023/04/20 04:56:12;;;;;;;18.23;13.45;;;9.50;99.90;;;;;;5115062;28;20230;-77
2023/04/20 04:58:39;;;;;;;22.50;16.35;;;9.50;99.90;;;;;;5114632;28;20671;-77
2023/04/20 05:01:08;;;;;;;23.92;15.20;;;9.50;99.90;;;;;;5116276;28;20223;-78
2023/04/20 05:03:38;;;;;;;17.88;13.85;;;9.50;99.90;;;;;;5075741;28;20233;-78
2023/04/20 05:06:06;;;;;;;18.63;14.50;;;9.50;99.90;;;;;;5116072;28;20242;-78
2023/04/20 05:08:34;;;;;;;21.90;16.20;;;9.50;99.90;;;;;;5114504;28;20219;-77
2023/04/20 05:11:01;;;;;;;20.75;15.65;;;9.60;99.90;;;;;;5114953;28;20309;-77
2023/04/20 05:13:28;;;;;;;18.50;15.43;;;9.50;99.90;;;;;;5114975;28;20226;-78
2023/04/20 05:15:59;;;;;;;16.95;14.65;;;9.50;99.90;;;;;;5116032;28;20231;-78
2023/04/20 05:18:29;;;;;;;16.55;14.32;;;9.50;99.90;;;;;;5114822;28;20222;-78
2023/04/20 05:21:10;;;;;;;20.48;15.05;;;9.60;99.90;;;;;;5115384;28;20226;-77
2023/04/20 05:23:43;;;;;;;19.83;15.50;;;9.60;99.90;;;;;;5116347;28;20222;-78
2023/04/20 05:26:11;;;;;;;19.25;15.25;;;9.60;99.90;;;;;;5117168;28;20233;-78
2023/04/20 05:28:40;;;;;;;17.50;14.57;;;9.60;99.90;;;;;;5123491;28;20420;-78
2023/04/20 05:31:08;;;;;;;17.27;12.82;;;9.60;99.90;;;;;;5123585;28;20257;-78
2023/04/20 05:33:35;;;;;;;22.38;17.85;;;9.60;99.90;;;;;;5120673;28;20226;-77
2023/04/20 05:36:04;;;;;;;21.45;15.77;;;9.60;99.90;;;;;;5117072;28;20286;-77
2023/04/20 05:38:31;;;;;;;23.02;17.58;;;9.70;99.90;;;;;;5116874;28;20324;-77
2023/04/20 05:40:58;;;;;;;22.23;14.50;;;9.80;99.90;;;;;;5116148;28;20222;-77
2023/04/20 05:43:28;;;;;;;17.13;15.40;;;9.70;99.90;;;;;;5115080;28;20233;-77
2023/04/20 05:45:55;;;;;;;17.55;15.30;;;9.80;99.90;;;;;;5115156;28;20226;-78
2023/04/20 05:48:26;;;;;;;17.88;14.63;;;9.80;99.90;;;;;;5114437;28;20280;-78
2023/04/20 05:50:53;;;;;;;16.85;14.07;;;9.90;99.90;;;;;;5115234;28;20226;-78
2023/04/20 05:53:24;;;;;;;18.00;13.73;;;9.90;99.90;;;;;;5115742;28;20222;-77
2023/04/20 05:55:51;;;;;;;18.77;15.63;;;10.00;99.90;;;;;;5113129;28;20222;-77
2023/04/20 05:58:20;;;;;;;20.42;16.85;;;10.00;99.90;;;;;;5114675;28;20219;-77
2023/04/20 06:00:47;;;;;;;20.33;16.40;;;10.00;99.90;;;;;;5114401;28;20226;-77
2023/04/20 06:03:17;;;;;;;17.70;15.80;;;9.90;99.90;;;;;;5115522;28;20229;-77
2023/04/20 06:05:49;;;;;;;19.20;16.30;;;9.90;99.90;;;;;;5101684;28;20226;-77
2023/04/20 06:08:17;;;;;;;22.88;15.18;;;9.90;99.90;;;;;;5099991;28;20238;-78
2023/04/20 06:10:46;;;;;;;19.23;14.73;;;9.90;99.90;;;;;;5114264;28;20310;-77
2023/04/20 06:13:19;;;;;;;16.85;15.15;;;10.00;99.90;;;;;;5115187;28;20219;-77
2023/04/20 06:15:52;;;;;;;16.23;14.52;;;10.00;99.90;;;;;;5113542;28;20236;-77
2023/04/20 06:18:20;;;;;;;21.08;16.55;;;10.10;99.90;;;;;;5114441;28;20680;-77
2023/04/20 06:20:47;;;;;;;16.38;13.60;;;10.10;99.90;;;;;;5105268;28;20685;-78
2023/04/20 06:23:15;;;;;;;18.33;16.08;;;10.10;99.90;;;;;;5099564;28;20226;-77
2023/04/20 06:25:46;;;;;;;20.00;16.15;;;10.20;99.90;;;;;;5107535;28;20234;-78
2023/04/20 06:28:13;;;;;;;17.45;15.55;;;10.20;99.90;;;;;;5122150;28;20308;-77
2023/04/20 06:30:40;;;;;;;22.70;17.08;;;10.20;99.90;;;;;;5105887;28;20268;-78
2023/04/20 06:33:07;;;;;;;21.25;16.73;;;10.20;99.90;;;;;;5113599;28;20210;-77
2023/04/20 06:35:37;;;;;;;20.50;16.80;;;10.20;99.90;;;;;;5113314;28;20246;-77
2023/04/20 06:38:04;;;;;;;17.80;15.90;;;10.30;99.90;;;;;;5112942;28;20233;-77
2023/04/20 06:40:31;;;;;;;27.95;18.05;;;10.30;99.90;;;;;;5113753;28;20222;-77
2023/04/20 06:42:59;;;;;;;19.52;16.27;;;10.20;99.90;;;;;;5113095;28;20225;-77
2023/04/20 06:45:27;;;;;;;18.20;16.30;;;10.20;99.90;;;;;;5113778;28;20237;-78
2023/04/20 06:47:54;;;;;;;19.63;15.45;;;10.20;99.90;;;;;;5112833;28;20307;-77
2023/04/20 06:50:21;;;;;;;18.55;16.33;;;10.20;99.90;;;;;;5113930;28;20260;-77
2023/04/20 06:52:48;;;;;;;19.58;17.52;;;10.20;99.90;;;;;;5113707;28;20226;-77
2023/04/20 06:55:15;;;;;;;19.58;15.75;;;10.30;99.90;;;;;;5112954;28;20222;-77
2023/04/20 06:57:43;;;;;;;17.33;15.52;;;10.30;99.90;;;;;;5114284;28;20256;-77
2023/04/20 07:00:13;;;;;;;17.95;16.05;;;10.30;99.90;;;;;;5113736;28;20227;-78
2023/04/20 07:02:44;;;;;;;23.02;17.92;;;10.30;99.90;;;;;;5116285;28;20287;-78
2023/04/20 07:05:12;;;;;;;20.70;17.20;;;10.30;99.90;;;;;;5118058;28;20222;-78
2023/04/20 07:07:39;;;;;;;20.60;17.35;;;10.30;99.90;;;;;;5116030;28;20558;-79
2023/04/20 07:10:07;;;;;;;23.52;19.80;;;10.40;99.90;;;;;;5114643;28;20283;-78
2023/04/20 07:12:35;;;;;;;24.27;17.85;;;10.40;99.90;;;;;;5114696;28;20219;-77
2023/04/20 07:15:03;;;;;;;22.95;19.45;;;10.40;99.90;;;;;;5114231;28;20257;-77
2023/04/20 07:17:32;;;;;;;25.83;19.58;;;10.40;99.90;;;;;;5117928;28;20237;-77
2023/04/20 07:20:06;;;;;;;19.52;17.60;;;10.40;99.90;;;;;;5116861;28;20244;-78
2023/04/20 07:22:33;;;;;;;18.95;16.67;;;10.50;99.90;;;;;;5118005;28;20606;-78
2023/04/20 07:25:01;;;;;;;24.20;18.40;;;10.60;99.90;;;;;;5117626;28;20223;-77
2023/04/20 07:27:29;;;;;;;20.73;18.20;;;10.70;99.90;;;;;;5117830;28;20215;-78
2023/04/20 07:29:58;;;;;;;18.73;16.80;;;10.70;99.90;;;;;;5117170;28;20219;-77
2023/04/20 07:32:28;;;;;;;20.13;17.70;;;10.80;99.90;;;;;;5117585;28;20250;-78
2023/04/20 07:34:59;;;;;;;18.42;16.17;;;11.00;99.90;;;;;;5116702;28;20263;-77
2023/04/20 07:37:28;;;;;;;20.67;16.77;;;11.00;99.90;;;;;;5065782;28;20224;-77
2023/04/20 07:39:55;;;;;;;19.33;17.27;;;11.00;99.90;;;;;;5075341;28;20240;-76
2023/04/20 07:42:22;;;;;;;17.88;15.73;;;11.10;99.90;;;;;;5076567;28;20219;-77
2023/04/20 07:44:50;;;;;;;18.42;14.95;;;11.10;99.90;;;;;;5076761;28;20623;-77
2023/04/20 07:47:19;;;;;;;18.75;16.17;;;11.20;99.90;;;;;;5076030;28;20239;-77
2023/04/20 07:49:47;;;;;;;19.45;17.42;;;11.30;99.90;;;;;;5076346;28;20587;-77
2023/04/20 07:52:17;;;;;;;16.73;15.00;;;11.20;99.90;;;;;;5076017;28;20243;-77
2023/04/20 07:54:44;;;;;;;16.98;13.80;;;11.30;99.90;;;;;;5076087;28;20228;-77
2023/04/20 07:57:11;;;;;;;17.27;15.48;;;11.20;99.90;;;;;;5075421;28;20791;-77
2023/04/20 07:59:39;;;;;;;16.27;14.10;;;11.30;99.90;;;;;;5075404;28;20230;-77
2023/04/20 08:02:08;;;;;;;16.40;14.70;;;11.30;99.90;;;;;;5066174;28;20232;-77
2023/04/20 08:04:36;;;;;;;16.35;14.65;;;11.30;99.90;;;;;;5075127;28;20308;-77
2023/04/20 08:07:03;;;;;;;18.73;14.95;;;11.30;99.90;;;;;;5074368;28;20241;-77
2023/04/20 08:09:32;;;;;;;16.00;14.38;;;11.20;99.90;;;;;;5066341;28;20248;-77
2023/04/20 08:12:00;;;;;;;15.50;13.90;;;11.20;99.90;;;;;;5074895;28;20231;-77
2023/04/20 08:14:28;;;;;;;17.55;13.98;;;11.20;99.90;;;;;;5082129;28;20219;-77
2023/04/20 08:17:02;;;;;;;17.50;15.60;;;11.20;99.90;;;;;;5092663;28;20568;-77
2023/04/20 08:19:33;;;;;;;16.98;14.50;;;11.30;99.90;;;;;;5095848;28;20620;-77
2023/04/20 08:22:00;;;;;;;18.30;14.95;;;11.30;99.90;;;;;;5095953;28;20622;-77
2023/04/20 08:24:27;;;;;;;15.65;14.05;;;11.40;99.90;;;;;;5084263;28;21085;-77
2023/04/20 08:26:58;;;;;;;15.48;13.75;;;11.60;99.90;;;;;;5108898;28;20239;-77
2023/04/20 08:29:25;;;;;;;15.35;13.45;;;11.70;99.90;;;;;;5088829;28;20216;-78
2023/04/20 08:31:54;;;;;;;13.93;12.40;;;11.80;99.90;;;;;;5096765;28;20230;-79
2023/04/20 08:34:22;;;;;;;13.40;11.73;;;11.80;99.90;;;;;;5082827;28;20227;-77
2023/04/20 08:37:00;;;;;;;14.02;12.63;;;11.70;99.90;;;;;;5104525;27;20229;-78
2023/04/20 08:39:28;;;;;;;13.02;11.73;;;11.70;99.90;;;;;;5109370;27;20233;-78
2023/04/20 08:42:08;;;;;;;13.48;11.30;;;11.70;99.90;;;;;;5139940;27;20675;-77
2023/04/20 08:47:11;;;;;;;15.10;12.45;;;11.80;99.90;;;;;;5093351;28;20678;-77
2023/04/20 08:49:39;;;;;;;13.98;12.38;;;11.80;99.90;;;;;;5095289;28;20563;-79
2023/04/20 08:52:09;;;;;;;15.75;12.65;;;11.80;99.90;;;;;;5094270;28;20215;-78
2023/04/20 08:54:37;;;;;;;16.08;13.57;;;11.70;99.90;;;;;;5097628;28;20228;-77
2023/04/20 08:57:06;;;;;;;14.98;13.25;;;11.70;99.90;;;;;;5115194;28;20230;-77
2023/04/20 08:59:34;;;;;;;14.27;12.77;;;11.60;99.90;;;;;;5116608;28;20305;-78
2023/04/20 09:02:11;;;;;;;15.10;13.50;;;11.60;99.90;;;;;;5115990;28;20245;-77
2023/04/20 09:04:40;;;;;;;11.90;10.70;;;11.50;99.90;;;;;;5115697;28;20298;-78
2023/04/20 09:07:16;;;;;;;14.30;12.77;;;11.50;99.90;;;;;;5115798;28;20600;-78
2023/04/20 09:09:54;;;;;;;17.83;13.70;;;11.50;99.90;;;;;;5112970;28;20574;-78
2023/04/20 09:12:25;;;;;;;14.10;12.65;;;11.50;99.90;;;;;;5105600;28;20218;-77
2023/04/20 09:14:53;;;;;;;13.77;12.32;;;11.40;99.90;;;;;;5106718;28;20245;-77
2023/04/20 09:17:32;;;;;;;14.63;12.45;;;11.40;99.90;;;;;;5115467;28;20252;-77
2023/04/20 09:20:07;;;;;;;16.13;13.07;;;11.30;99.90;;;;;;5105689;28;20268;-78
2023/04/20 09:22:35;;;;;;;18.95;14.40;;;11.30;99.90;;;;;;5115177;28;20233;-78
2023/04/20 09:25:17;;;;;;;13.20;11.55;;;11.30;99.90;;;;;;5114665;28;20223;-79
2023/04/20 09:27:55;;;;;;;13.77;12.45;;;11.30;99.90;;;;;;5113718;28;20312;-78
2023/04/20 09:30:26;;;;;;;15.77;14.07;;;11.30;99.90;;;;;;5115273;28;20610;-79
2023/04/20 09:33:01;;;;;;;15.98;14.20;;;11.20;99.90;;;;;;5112382;28;20729;-79
2023/04/20 09:35:29;;;;;;;16.13;13.55;;;11.20;99.90;;;;;;5103263;28;20309;-77
2023/04/20 09:37:58;;;;;;;18.25;15.20;;;11.20;99.90;;;;;;5098164;28;20214;-77
2023/04/20 09:40:26;;;;;;;18.13;14.50;;;11.20;99.90;;;;;;5112955;28;20315;-76
2023/04/20 09:42:58;;;;;;;15.70;14.02;;;11.20;99.90;;;;;;5093464;28;20238;-78
2023/04/20 09:45:28;;;;;;;17.88;13.85;;;11.20;99.90;;;;;;5083819;28;20240;-79
2023/04/20 09:47:55;;;;;;;15.68;14.05;;;11.20;99.90;;;;;;5091286;28;20281;-78
2023/04/20 09:50:23;;;;;;;16.55;14.85;;;11.20;99.90;;;;;;5092533;28;20231;-80
2023/04/20 09:52:51;;;;;;;15.05;13.55;;;11.20;99.90;;;;;;5083163;28;20280;-77
2023/04/20 09:55:23;;;;;;;14.43;12.80;;;11.20;99.90;;;;;;5085037;28;20680;-77
2023/04/20 09:57:53;;;;;;;18.48;16.65;;;11.30;99.90;;;;;;5091133;28;20306;-77
2023/04/20 10:00:25;;;;;;;17.58;15.70;;;11.40;99.90;;;;;;5093361;28;20219;-77
2023/04/20 10:02:55;;;;;;;15.35;13.70;;;11.50;99.90;;;;;;5093239;28;20219;-77
2023/04/20 10:05:34;;;;;;;17.25;15.43;;;11.50;99.90;;;;;;5094039;28;20223;-77
2023/04/20 10:08:01;;;;;;;18.02;16.13;;;11.60;99.90;;;;;;5093320;28;20268;-78
2023/04/20 10:10:29;;;;;;;18.08;14.57;;;11.70;99.90;;;;;;5093459;28;20276;-78
2023/04/20 10:12:58;;;;;;;15.00;13.70;;;11.70;99.90;;;;;;5083168;28;20272;-78
2023/04/20 10:15:40;;;;;;;16.05;14.35;;;11.80;99.90;;;;;;5093212;28;20284;-77
2023/04/20 10:18:18;;;;;;;14.77;13.25;;;11.90;99.90;;;;;;5095141;28;20219;-78
2023/04/20 10:20:46;;;;;;;15.15;13.65;;;11.90;99.90;;;;;;5105298;28;20211;-77
2023/04/20 10:23:15;;;;;;;16.80;15.20;;;12.00;99.90;;;;;;5110891;28;20218;-77
2023/04/20 10:25:44;;;;;;;13.20;11.90;;;12.00;99.90;;;;;;5115501;28;20230;-77
2023/04/20 10:28:11;;;;;;;14.15;12.75;;;12.10;99.90;;;;;;5113035;28;20222;-77
2023/04/20 10:30:50;;;;;;;13.52;12.10;;;12.20;99.90;;;;;;5114204;28;20540;-77
2023/04/20 10:33:18;;;;;;;13.68;12.48;;;12.20;99.90;;;;;;5112768;28;20287;-77
2023/04/20 10:35:49;;;;;;;13.55;12.18;;;12.30;99.90;;;;;;5113464;28;20706;-77
2023/04/20 10:38:30;;;;;;;12.93;11.55;;;12.30;99.90;;;;;;5112877;28;20532;-77
2023/04/20 10:40:58;;;;;;;11.13;10.20;;;12.40;99.90;;;;;;5112925;28;20250;-77
2023/04/20 10:43:25;;;;;;;11.20;10.30;;;12.50;99.90;;;;;;5113696;28;20222;-78
2023/04/20 10:45:55;;;;;;;10.95;9.93;;;12.60;99.90;;;;;;5113118;28;20230;-77
2023/04/20 10:48:22;;;;;;;12.65;11.35;;;12.60;99.90;;;;;;5111909;28;20305;-77
2023/04/20 10:50:49;;;;;;;12.27;10.77;;;12.60;99.90;;;;;;5113131;28;20226;-78
2023/04/20 10:53:20;;;;;;;14.75;11.85;;;12.60;99.90;;;;;;5113259;28;20225;-77
2023/04/20 10:56:13;;;;;;;11.88;10.70;;;12.70;99.90;;;;;;5113026;28;20548;-78
2023/04/20 10:58:42;;;;;;;12.73;11.50;;;12.80;99.90;;;;;;5110084;28;20690;-78
2023/04/20 11:01:11;;;;;;;11.88;10.80;;;12.80;99.90;;;;;;5113665;28;20585;-78
2023/04/20 11:03:38;;;;;;;11.70;10.60;;;12.90;99.90;;;;;;5113197;28;20248;-77
2023/04/20 11:06:05;;;;;;;11.73;10.63;;;13.00;99.90;;;;;;5112420;28;20298;-77
2023/04/20 11:08:40;;;;;;;12.57;11.32;;;13.10;99.90;;;;;;5113298;28;20223;-77
2023/04/20 11:11:18;;;;;;;11.00;9.30;;;13.20;99.90;;;;;;5110280;28;20253;-77
2023/04/20 11:13:45;;;;;;;12.70;11.40;;;13.30;99.90;;;;;;5092501;28;20226;-77
2023/04/20 11:16:16;;;;;;;12.10;10.68;;;13.30;99.90;;;;;;5093101;28;20235;-77
2023/04/20 11:18:51;;;;;;;11.93;10.82;;;13.30;99.90;;;;;;5093818;28;20264;-77
2023/04/20 11:21:18;;;;;;;13.35;11.90;;;13.30;99.90;;;;;;5104292;28;20328;-77
2023/04/20 11:23:45;;;;;;;12.20;11.00;;;13.40;99.90;;;;;;5113644;28;20672;-77
2023/04/20 11:26:12;;;;;;;11.20;10.13;;;13.50;99.90;;;;;;5106801;28;20227;-78
2023/04/20 11:28:50;;;;;;;16.17;12.77;;;13.50;99.90;;;;;;5117681;28;20222;-77
2023/04/20 11:31:19;;;;;;;12.57;11.35;;;13.60;99.90;;;;;;5114904;28;20230;-77
2023/04/20 11:33:46;;;;;;;15.35;13.93;;;13.60;99.90;;;;;;5111794;28;20293;-76
2023/04/20 11:36:19;;;;;;;13.60;12.30;;;13.60;99.90;;;;;;5104721;28;20222;-79
2023/04/20 11:38:46;;;;;;;14.53;13.13;;;13.70;99.90;;;;;;5112618;28;20237;-78
2023/04/20 11:41:17;;;;;;;14.97;13.37;;;13.60;99.90;;;;;;5112710;28;20464;-77
2023/04/20 11:43:44;;;;;;;16.83;14.57;;;13.60;99.90;;;;;;5112172;28;20468;-76
2023/04/20 11:46:16;;;;;;;15.97;14.50;;;13.70;99.90;;;;;;5112412;28;20543;-77
2023/04/20 11:48:45;;;;;;;14.90;13.50;;;13.70;99.90;;;;;;5106760;28;20480;-77
2023/04/20 11:51:13;;;;;;;15.88;13.90;;;13.70;99.90;;;;;;5066931;28;20553;-77
2023/04/20 11:53:40;;;;;;;15.38;13.65;;;13.80;99.90;;;;;;5084621;28;20220;-77
2023/04/20 11:56:08;;;;;;;14.00;12.50;;;13.80;99.90;;;;;;5090871;28;20548;-78
2023/04/20 11:58:37;;;;;;;13.47;12.23;;;13.90;99.90;;;;;;5089862;28;20561;-78
2023/04/20 12:01:05;;;;;;;13.43;12.13;;;14.00;99.90;;;;;;5090877;28;20466;-77
2023/04/20 12:03:32;;;;;;;17.33;14.33;;;14.10;99.90;;;;;;5101604;28;20496;-77
2023/04/20 12:06:01;;;;;;;14.50;12.27;;;14.20;99.90;;;;;;5111966;28;20590;-77
2023/04/20 12:08:28;;;;;;;15.60;14.13;;;14.30;99.90;;;;;;5087647;28;20544;-76
2023/04/20 12:10:55;;;;;;;14.13;12.83;;;14.20;99.90;;;;;;5080062;28;20512;-77
2023/04/20 12:13:23;;;;;;;14.67;13.27;;;14.30;99.90;;;;;;5093818;28;20464;-77
2023/04/20 12:15:50;;;;;;;14.60;13.10;;;14.30;99.90;;;;;;5116002;28;20472;-77
2023/04/20 12:18:20;;;;;;;14.43;13.07;;;14.30;99.90;;;;;;5115848;28;20472;-79
2023/04/20 12:20:49;;;;;;;18.20;16.33;;;14.40;99.90;;;;;;5114437;28;20460;-78
2023/04/20 12:23:17;;;;;;;17.03;15.40;;;14.30;99.90;;;;;;5110402;28;20461;-77
2023/04/20 12:25:44;;;;;;;15.70;14.00;;;14.30;99.90;;;;;;5084963;28;20840;-77
2023/04/20 12:28:20;;;;;;;14.40;12.97;;;14.20;99.90;;;;;;5094706;28;20841;-78
2023/04/20 12:30:47;;;;;;;14.57;13.27;;;14.30;99.90;;;;;;5101420;28;20937;-78
2023/04/20 12:33:16;;;;;;;14.67;13.17;;;14.20;99.90;;;;;;5102905;28;20465;-77
2023/04/20 12:35:43;;;;;;;14.63;13.10;;;14.20;99.90;;;;;;5095005;28;20469;-78
2023/04/20 12:38:11;;;;;;;14.73;13.20;;;14.20;99.90;;;;;;5095649;28;20481;-78
2023/04/20 12:40:39;;;;;;;13.80;12.40;;;14.20;99.90;;;;;;5095123;28;20466;-78
2023/04/20 12:43:07;;;;;;;13.53;12.23;;;14.30;99.90;;;;;;5094553;28;20457;-79
2023/04/20 12:45:34;;;;;;;14.73;13.17;;;14.30;99.90;;;;;;5095464;28;20498;-79
2023/04/20 12:48:06;;;;;;;12.43;11.33;;;14.40;99.90;;;;;;5102885;28;20468;-78
2023/04/20 12:50:35;;;;;;;14.37;12.87;;;14.40;99.90;;;;;;5088720;28;20545;-78
2023/04/20 12:53:12;;;;;;;17.73;13.80;;;14.40;99.90;;;;;;5093489;28;20466;-77
2023/04/20 12:56:09;;;;;;;13.20;11.90;;;14.50;99.90;;;;;;5084580;28;20499;-78
2023/04/20 12:58:46;;;;;;;14.63;13.33;;;14.50;99.90;;;;;;5087878;28;21098;-77